createdAt,value
2023-09-02T00:01:54.760Z,14.34
2023-09-02T00:04:25.283Z,14.33
2023-09-02T00:06:55.829Z,14.32
2023-09-02T00:09:26.339Z,14.26
2023-09-02T00:11:59.609Z,14.24
2023-09-02T00:14:30.109Z,14.19
2023-09-02T00:17:00.714Z,14.13
2023-09-02T00:19:31.351Z,14.11
2023-09-02T00:22:01.923Z,14.16
2023-09-02T00:24:32.403Z,14.11
2023-09-02T00:27:05.500Z,14.08
2023-09-02T00:29:36.036Z,14.03
2023-09-02T00:32:07.026Z,14.00
2023-09-02T00:34:38.149Z,14.00
2023-09-02T00:37:08.811Z,13.98
2023-09-02T00:39:39.342Z,13.95
2023-09-02T00:42:14.409Z,13.94
2023-09-02T00:44:44.994Z,13.91
2023-09-02T00:47:16.153Z,13.89
2023-09-02T00:49:46.767Z,13.87
2023-09-02T00:52:17.336Z,13.86
2023-09-02T00:54:47.920Z,13.85
2023-09-02T00:57:21.260Z,13.84
2023-09-02T00:59:51.829Z,13.81
2023-09-02T01:02:22.710Z,13.79
2023-09-02T01:04:53.643Z,13.79
2023-09-02T01:07:24.621Z,13.80
2023-09-02T01:09:55.180Z,13.77
2023-09-02T01:12:28.545Z,13.76
2023-09-02T01:14:59.867Z,13.69
2023-09-02T01:17:31.797Z,13.62
2023-09-02T01:20:03.917Z,13.65
2023-09-02T01:22:59.611Z,13.58
2023-09-02T01:25:58.707Z,13.51
2023-09-02T01:28:38.101Z,13.50
2023-09-02T01:31:11.716Z,13.49
2023-09-02T01:33:44.222Z,13.50
2023-09-02T01:36:18.574Z,13.50
2023-09-02T01:38:50.215Z,13.51
2023-09-02T01:41:20.975Z,13.51
2023-09-02T01:43:55.006Z,13.50
2023-09-02T01:46:26.290Z,13.50
2023-09-02T01:48:57.112Z,13.49
2023-09-02T01:51:29.158Z,13.44
2023-09-02T01:53:59.999Z,13.48
2023-09-02T01:56:31.438Z,13.52
2023-09-02T01:59:04.621Z,13.49
2023-09-02T02:01:35.664Z,13.50
2023-09-02T02:04:14.596Z,13.51
2023-09-02T02:06:46.819Z,13.47
2023-09-02T02:09:23.972Z,13.44
2023-09-02T02:11:52.725Z,13.41
2023-09-02T02:14:25.846Z,13.41
2023-09-02T02:16:56.453Z,13.40
2023-09-02T02:19:26.995Z,13.40
2023-09-02T02:21:58.930Z,13.40
2023-09-02T02:24:29.951Z,13.39
2023-09-02T02:27:00.831Z,13.32
2023-09-02T02:29:33.999Z,13.29
2023-09-02T02:32:04.728Z,13.25
2023-09-02T02:34:36.046Z,13.30
2023-09-02T02:37:06.537Z,13.25
2023-09-02T02:39:37.878Z,13.21
2023-09-02T02:42:08.636Z,13.16
2023-09-02T02:44:41.825Z,13.05
2023-09-02T02:47:12.401Z,13.09
2023-09-02T02:49:43.105Z,13.10
2023-09-02T02:52:13.650Z,13.03
2023-09-02T02:54:44.534Z,12.93
2023-09-02T02:57:15.081Z,12.91
2023-09-02T02:59:48.521Z,12.91
2023-09-02T03:02:19.190Z,12.91
2023-09-02T03:04:49.938Z,12.94
2023-09-02T03:07:20.831Z,12.84
2023-09-02T03:09:51.554Z,12.92
2023-09-02T03:12:22.119Z,12.90
2023-09-02T03:14:56.378Z,12.88
2023-09-02T03:17:27.039Z,12.89
2023-09-02T03:19:57.654Z,12.84
2023-09-02T03:22:30.055Z,12.83
2023-09-02T03:25:00.687Z,12.85
2023-09-02T03:27:32.705Z,12.79
2023-09-02T03:30:06.000Z,12.72
2023-09-02T03:32:36.804Z,12.71
2023-09-02T03:35:09.237Z,12.70
2023-09-02T03:37:39.994Z,12.68
2023-09-02T03:40:12.277Z,12.67
2023-09-02T03:42:42.890Z,12.62
2023-09-02T03:45:16.208Z,12.61
2023-09-02T03:47:46.928Z,12.57
2023-09-02T03:50:17.553Z,12.57
2023-09-02T03:52:48.333Z,12.58
2023-09-02T03:55:18.992Z,12.60
2023-09-02T03:57:49.625Z,12.60
2023-09-02T04:00:24.553Z,12.59
2023-09-02T04:02:58.920Z,12.43
2023-09-02T04:05:29.529Z,12.49
2023-09-02T04:08:00.013Z,12.56
2023-09-02T04:10:32.321Z,12.53
2023-09-02T04:13:02.920Z,12.46
2023-09-02T04:15:36.587Z,12.41
2023-09-02T04:18:08.018Z,12.41
2023-09-02T04:20:39.676Z,12.40
2023-09-02T04:23:10.260Z,12.36
2023-09-02T04:25:49.020Z,12.30
2023-09-02T04:28:21.350Z,12.27
2023-09-02T04:30:57.985Z,12.36
2023-09-02T04:33:31.666Z,12.39
2023-09-02T04:36:04.975Z,12.36
2023-09-02T04:38:39.355Z,12.38
2023-09-02T04:41:10.499Z,12.42
2023-09-02T04:43:42.574Z,12.49
2023-09-02T04:46:17.277Z,12.48
2023-09-02T04:48:50.224Z,12.51
2023-09-02T04:51:23.686Z,12.47
2023-09-02T04:53:54.514Z,12.55
2023-09-02T04:56:25.539Z,12.64
2023-09-02T04:58:57.126Z,12.68
2023-09-02T05:01:31.889Z,12.67
2023-09-02T05:04:03.626Z,12.81
2023-09-02T05:06:34.377Z,12.86
2023-09-02T05:09:07.691Z,12.94
2023-09-02T05:11:38.227Z,13.01
2023-09-02T05:14:08.927Z,13.08
2023-09-02T05:16:42.043Z,13.17
2023-09-02T05:19:13.290Z,13.29
2023-09-02T05:21:43.988Z,13.41
2023-09-02T05:24:14.572Z,13.61
2023-09-02T05:26:46.279Z,13.84
2023-09-02T05:29:17.736Z,14.00
2023-09-02T05:31:50.939Z,14.10
2023-09-02T05:34:21.559Z,14.24
2023-09-02T05:36:52.097Z,14.23
2023-09-02T05:39:22.620Z,14.39
2023-09-02T05:41:53.144Z,14.62
2023-09-02T05:44:23.702Z,15.15
2023-09-02T05:46:56.813Z,15.88
2023-09-02T05:49:27.470Z,16.31
2023-09-02T05:51:57.924Z,16.59
2023-09-02T05:54:28.492Z,16.81
2023-09-02T05:56:58.966Z,16.96
2023-09-02T05:59:30.665Z,17.13
2023-09-02T06:02:04.084Z,17.53
2023-09-02T06:04:34.639Z,17.58
2023-09-02T06:07:05.154Z,17.18
2023-09-02T06:09:35.650Z,17.30
2023-09-02T06:12:06.521Z,17.61
2023-09-02T06:14:37.246Z,17.93
2023-09-02T06:17:10.430Z,18.25
2023-09-02T06:19:41.003Z,18.99
2023-09-02T06:22:11.472Z,19.56
2023-09-02T06:24:41.968Z,19.95
2023-09-02T06:27:12.453Z,20.17
2023-09-02T06:29:46.855Z,20.82
2023-09-02T06:32:20.004Z,21.04
2023-09-02T06:34:51.392Z,21.34
2023-09-02T06:37:21.970Z,21.68
2023-09-02T06:39:56.520Z,21.81
2023-09-02T06:42:27.676Z,22.12
2023-09-02T06:44:58.202Z,22.74
2023-09-02T06:47:31.348Z,23.14
2023-09-02T06:50:01.953Z,23.35
2023-09-02T06:52:32.496Z,24.05
2023-09-02T06:55:05.066Z,24.45
2023-09-02T06:57:35.570Z,25.08
2023-09-02T07:00:06.482Z,24.79
2023-09-02T07:02:39.675Z,24.99
2023-09-02T07:05:10.722Z,25.58
2023-09-02T07:07:42.339Z,24.86
2023-09-02T07:10:13.948Z,25.61
2023-09-02T07:12:44.476Z,25.73
2023-09-02T07:15:15.101Z,25.78
2023-09-02T07:17:48.346Z,26.43
2023-09-02T07:20:18.896Z,26.68
2023-09-02T07:22:49.396Z,26.47
2023-09-02T07:25:19.992Z,26.34
2023-09-02T07:27:50.509Z,26.90
2023-09-02T07:30:21.313Z,27.30
2023-09-02T07:32:54.472Z,26.95
2023-09-02T07:35:24.998Z,27.38
2023-09-02T07:37:55.533Z,27.74
2023-09-02T07:40:26.322Z,28.29
2023-09-02T07:42:56.861Z,28.56
2023-09-02T07:45:27.476Z,28.37
2023-09-02T07:48:00.701Z,29.22
2023-09-02T07:50:31.417Z,30.76
2023-09-02T07:53:02.002Z,31.16
2023-09-02T07:55:32.505Z,31.09
2023-09-02T07:58:03.197Z,31.03
2023-09-02T08:00:33.863Z,31.48
2023-09-02T08:03:07.904Z,31.55
2023-09-02T08:05:42.169Z,31.76
2023-09-02T08:08:12.684Z,31.13
2023-09-02T08:10:43.336Z,30.55
2023-09-02T08:13:14.435Z,30.71
2023-09-02T08:15:44.986Z,30.61
2023-09-02T08:18:18.234Z,29.97
2023-09-02T08:20:48.742Z,29.50
2023-09-02T08:23:19.532Z,30.16
2023-09-02T08:25:50.243Z,30.78
2023-09-02T08:28:20.753Z,30.34
2023-09-02T08:30:51.727Z,30.24
2023-09-02T08:33:24.868Z,30.84
2023-09-02T08:35:55.362Z,31.30
2023-09-02T08:38:25.924Z,31.70
2023-09-02T08:40:58.625Z,31.99
2023-09-02T08:43:31.333Z,31.88
2023-09-02T08:46:03.766Z,32.14
2023-09-02T08:48:40.156Z,32.01
2023-09-02T08:51:12.807Z,32.65
2023-09-02T08:53:44.533Z,33.12
2023-09-02T08:56:16.023Z,33.89
2023-09-02T08:58:47.018Z,33.09
2023-09-02T09:01:22.044Z,32.85
2023-09-02T09:03:59.232Z,33.94
2023-09-02T09:06:32.555Z,33.99
2023-09-02T09:09:03.850Z,33.90
2023-09-02T09:11:39.039Z,33.81
2023-09-02T09:14:13.655Z,33.62
2023-09-02T09:16:46.872Z,33.41
2023-09-02T09:19:20.580Z,34.07
2023-09-02T09:21:51.273Z,34.72
2023-09-02T09:24:21.809Z,34.74
2023-09-02T09:26:53.417Z,34.63
2023-09-02T09:29:24.514Z,35.04
2023-09-02T09:32:12.733Z,34.89
2023-09-02T09:34:47.438Z,36.23
2023-09-02T09:37:19.074Z,36.24
2023-09-02T09:39:52.905Z,36.87
2023-09-02T09:42:37.741Z,35.69
2023-09-02T09:45:10.325Z,36.34
2023-09-02T09:47:44.031Z,37.29
2023-09-02T09:50:21.816Z,38.12
2023-09-02T09:53:10.903Z,38.31
2023-09-02T09:55:42.013Z,37.58
2023-09-02T09:58:12.726Z,38.44
2023-09-02T10:00:43.257Z,39.20
2023-09-02T10:03:13.894Z,39.27
2023-09-02T10:05:47.350Z,39.80
2023-09-02T10:08:18.022Z,39.14
2023-09-02T10:10:48.559Z,37.69
2023-09-02T10:13:19.912Z,37.07
2023-09-02T10:15:51.861Z,37.06
2023-09-02T10:18:24.747Z,36.97
2023-09-02T10:20:58.584Z,37.19
2023-09-02T10:23:29.271Z,36.48
2023-09-02T10:26:09.052Z,37.73
2023-09-02T10:28:42.169Z,37.98
2023-09-02T10:31:18.821Z,38.74
2023-09-02T10:33:53.645Z,38.71
2023-09-02T10:36:30.816Z,37.84
2023-09-02T10:39:06.682Z,38.71
2023-09-02T10:41:38.197Z,38.71
2023-09-02T10:44:09.663Z,38.72
2023-09-02T10:46:41.751Z,38.84
2023-09-02T10:49:12.416Z,38.20
2023-09-02T10:51:46.575Z,37.28
2023-09-02T10:54:17.122Z,36.78
2023-09-02T10:56:47.622Z,36.00
2023-09-02T10:59:32.962Z,33.94
2023-09-02T11:02:03.620Z,33.62
2023-09-02T11:05:01.412Z,33.76
2023-09-02T11:07:35.326Z,33.92
2023-09-02T11:10:06.821Z,33.49
2023-09-02T11:12:37.708Z,33.41
2023-09-02T11:15:19.988Z,33.43
2023-09-02T11:17:50.682Z,33.65
2023-09-02T11:20:25.188Z,33.56
2023-09-02T11:23:01.013Z,33.92
2023-09-02T11:25:42.883Z,33.75
2023-09-02T11:28:29.868Z,33.65
2023-09-02T11:31:11.941Z,33.07
2023-09-02T11:33:43.825Z,33.65
2023-09-02T11:36:16.591Z,33.97
2023-09-02T11:38:49.791Z,34.31
2023-09-02T11:41:29.377Z,35.47
2023-09-02T11:43:59.913Z,35.46
2023-09-02T11:46:30.468Z,35.62
2023-09-02T11:49:01.053Z,37.25
2023-09-02T11:51:31.710Z,38.26
2023-09-02T11:54:05.882Z,37.72
2023-09-02T11:56:37.748Z,37.96
2023-09-02T11:59:08.309Z,37.24
2023-09-02T12:01:38.830Z,37.00
2023-09-02T12:04:09.557Z,37.01
2023-09-02T12:06:40.079Z,37.88
2023-09-02T12:09:13.241Z,38.24
2023-09-02T12:11:44.427Z,39.36
2023-09-02T12:14:15.039Z,39.59
2023-09-02T12:16:45.620Z,39.43
2023-09-02T12:19:16.830Z,39.78
2023-09-02T12:21:47.445Z,39.26
2023-09-02T12:24:21.247Z,37.29
2023-09-02T12:26:52.682Z,37.24
2023-09-02T12:29:24.809Z,36.74
2023-09-02T12:31:56.270Z,36.44
2023-09-02T12:34:27.282Z,35.66
2023-09-02T12:36:57.756Z,35.07
2023-09-02T12:39:31.738Z,33.61
2023-09-02T12:42:02.278Z,32.89
2023-09-02T12:44:32.781Z,31.93
2023-09-02T12:47:04.008Z,31.78
2023-09-02T12:49:35.476Z,31.74
2023-09-02T12:52:06.236Z,31.70
2023-09-02T12:54:39.339Z,31.68
2023-09-02T12:57:09.826Z,31.22
2023-09-02T12:59:40.385Z,31.37
2023-09-02T13:02:10.995Z,31.52
2023-09-02T13:04:41.551Z,32.18
2023-09-02T13:07:12.278Z,31.91
2023-09-02T13:09:45.362Z,33.23
2023-09-02T13:12:16.462Z,34.86
2023-09-02T13:14:47.230Z,35.56
2023-09-02T13:17:19.209Z,36.36
2023-09-02T13:19:50.099Z,37.03
2023-09-02T13:22:20.765Z,36.68
2023-09-02T13:24:55.687Z,37.38
2023-09-02T13:27:29.427Z,37.85
2023-09-02T13:30:00.302Z,37.38
2023-09-02T13:32:33.212Z,36.93
2023-09-02T13:35:16.102Z,36.80
2023-09-02T13:37:48.684Z,34.91
2023-09-02T13:40:46.170Z,33.85
2023-09-02T13:43:21.803Z,34.08
2023-09-02T13:45:53.550Z,33.64
2023-09-02T13:48:26.599Z,33.26
2023-09-02T13:50:58.627Z,34.96
2023-09-02T13:53:29.153Z,36.53
2023-09-02T13:56:02.875Z,38.42
2023-09-02T13:58:39.144Z,37.91
2023-09-02T14:01:09.674Z,38.42
2023-09-02T14:03:40.962Z,38.29
2023-09-02T14:06:11.653Z,39.26
2023-09-02T14:08:45.759Z,39.28
2023-09-02T14:11:20.756Z,39.67
2023-09-02T14:13:52.571Z,39.46
2023-09-02T14:16:23.399Z,36.78
2023-09-02T14:18:54.081Z,34.88
2023-09-02T14:21:24.529Z,35.01
2023-09-02T14:23:55.039Z,35.62
2023-09-02T14:26:31.314Z,35.64
2023-09-02T14:29:01.970Z,34.42
2023-09-02T14:31:33.256Z,34.43
2023-09-02T14:34:03.737Z,35.02
2023-09-02T14:36:34.271Z,34.53
2023-09-02T14:39:04.820Z,34.38
2023-09-02T14:41:37.921Z,34.88
2023-09-02T14:44:08.465Z,34.30
2023-09-02T14:46:39.094Z,33.51
2023-09-02T14:49:09.672Z,31.33
2023-09-02T14:51:40.157Z,32.30
2023-09-02T14:54:10.888Z,33.46
2023-09-02T14:56:47.013Z,34.98
2023-09-02T14:59:21.787Z,35.92
2023-09-02T15:01:53.422Z,36.85
2023-09-02T15:04:24.662Z,37.33
2023-09-02T15:06:55.604Z,36.68
2023-09-02T15:09:32.074Z,36.60
2023-09-02T15:12:05.701Z,37.26
2023-09-02T15:14:37.992Z,38.21
2023-09-02T15:17:08.767Z,37.43
2023-09-02T15:19:39.405Z,36.17
2023-09-02T15:22:09.922Z,35.61
2023-09-02T15:24:40.485Z,35.12
2023-09-02T15:27:14.172Z,34.10
2023-09-02T15:29:46.233Z,34.20
2023-09-02T15:32:16.703Z,33.90
2023-09-02T15:34:51.025Z,33.61
2023-09-02T15:37:24.973Z,32.98
2023-09-02T15:40:01.815Z,31.98
2023-09-02T15:42:37.038Z,30.00
2023-09-02T15:45:08.113Z,30.11
2023-09-02T15:47:40.070Z,30.21
2023-09-02T15:50:11.615Z,30.27
2023-09-02T15:52:42.139Z,29.65
2023-09-02T15:55:12.957Z,31.33
2023-09-02T15:57:46.104Z,33.24
2023-09-02T16:00:17.148Z,33.37
2023-09-02T16:02:47.754Z,33.70
2023-09-02T16:05:18.781Z,33.29
2023-09-02T16:07:51.305Z,33.01
2023-09-02T16:10:22.170Z,32.92
2023-09-02T16:12:55.247Z,32.46
2023-09-02T16:15:26.797Z,31.02
2023-09-02T16:17:57.423Z,31.34
2023-09-02T16:20:28.016Z,30.51
2023-09-02T16:22:58.506Z,30.43
2023-09-02T16:25:29.038Z,29.94
2023-09-02T16:28:02.125Z,29.89
2023-09-02T16:30:32.720Z,31.06
2023-09-02T16:33:04.695Z,31.78
2023-09-02T16:35:36.517Z,31.80
2023-09-02T16:38:07.034Z,32.64
2023-09-02T16:40:37.621Z,32.22
2023-09-02T16:43:10.947Z,32.41
2023-09-02T16:45:42.832Z,30.91
2023-09-02T16:48:16.777Z,30.76
2023-09-02T16:50:50.441Z,31.18
2023-09-02T16:53:21.549Z,31.76
2023-09-02T16:56:03.502Z,31.85
2023-09-02T16:58:37.876Z,31.28
2023-09-02T17:01:09.562Z,31.88
2023-09-02T17:03:40.345Z,31.27
2023-09-02T17:06:10.858Z,29.92
2023-09-02T17:08:41.489Z,29.17
2023-09-02T17:11:12.023Z,28.97
2023-09-02T17:13:45.136Z,28.34
2023-09-02T17:16:16.014Z,27.83
2023-09-02T17:18:46.802Z,27.38
2023-09-02T17:21:18.799Z,26.88
2023-09-02T17:23:49.403Z,26.47
2023-09-02T17:26:20.066Z,26.07
2023-09-02T17:28:53.296Z,25.90
2023-09-02T17:31:23.970Z,25.65
2023-09-02T17:33:54.511Z,25.45
2023-09-02T17:36:25.260Z,25.25
2023-09-02T17:38:55.814Z,25.04
2023-09-02T17:41:26.470Z,24.92
2023-09-02T17:43:59.538Z,24.69
2023-09-02T17:46:30.239Z,24.46
2023-09-02T17:49:00.747Z,24.26
2023-09-02T17:51:31.364Z,24.04
2023-09-02T17:54:01.854Z,23.93
2023-09-02T17:56:32.399Z,23.70
2023-09-02T17:59:05.511Z,23.42
2023-09-02T18:01:36.018Z,23.19
2023-09-02T18:04:06.592Z,23.06
2023-09-02T18:06:37.201Z,22.81
2023-09-02T18:09:08.132Z,22.69
2023-09-02T18:11:38.692Z,22.59
2023-09-02T18:14:12.010Z,22.44
2023-09-02T18:16:42.554Z,22.29
2023-09-02T18:19:13.108Z,22.13
2023-09-02T18:21:43.710Z,21.99
2023-09-02T18:24:14.391Z,21.85
2023-09-02T18:26:44.910Z,21.73
2023-09-02T18:29:18.196Z,21.62
2023-09-02T18:31:48.687Z,21.44
2023-09-02T18:34:19.211Z,21.37
2023-09-02T18:36:49.719Z,21.27
2023-09-02T18:39:22.291Z,21.13
2023-09-02T18:41:52.851Z,20.96
2023-09-02T18:44:25.940Z,20.93
2023-09-02T18:46:56.786Z,20.86
2023-09-02T18:49:27.377Z,20.78
2023-09-02T18:51:57.962Z,20.71
2023-09-02T18:54:28.667Z,20.67
2023-09-02T18:56:59.308Z,20.58
2023-09-02T18:59:32.483Z,20.55
2023-09-02T19:02:03.049Z,20.50
2023-09-02T19:04:33.633Z,20.44
2023-09-02T19:07:04.138Z,20.39
2023-09-02T19:09:35.233Z,20.26
2023-09-02T19:12:05.907Z,20.13
2023-09-02T19:14:39.157Z,20.00
2023-09-02T19:17:09.757Z,19.98
2023-09-02T19:19:40.335Z,19.89
2023-09-02T19:22:10.921Z,19.74
2023-09-02T19:24:41.646Z,19.69
2023-09-02T19:27:12.317Z,19.59
2023-09-02T19:29:48.454Z,19.48
2023-09-02T19:32:19.046Z,19.42
2023-09-02T19:34:49.765Z,19.37
2023-09-02T19:37:20.471Z,19.26
2023-09-02T19:39:59.356Z,19.11
2023-09-02T19:42:30.050Z,19.07
2023-09-02T19:45:03.315Z,19.00
2023-09-02T19:47:34.123Z,18.96
2023-09-02T19:50:05.501Z,18.84
2023-09-02T19:52:36.771Z,18.86
2023-09-02T19:55:08.172Z,18.83
2023-09-02T19:57:38.824Z,18.71
2023-09-02T20:00:13.912Z,18.65
2023-09-02T20:02:45.054Z,18.55
2023-09-02T20:05:15.682Z,18.40
2023-09-02T20:07:46.224Z,18.40
2023-09-02T20:10:17.522Z,18.39
2023-09-02T20:12:49.765Z,18.38
2023-09-02T20:15:22.952Z,18.36
2023-09-02T20:17:53.740Z,18.33
2023-09-02T20:20:25.470Z,18.28
2023-09-02T20:22:56.340Z,18.18
2023-09-02T20:25:26.939Z,18.06
2023-09-02T20:27:57.442Z,18.00
2023-09-02T20:30:30.552Z,18.03
2023-09-02T20:33:01.051Z,18.01
2023-09-02T20:35:31.584Z,17.82
2023-09-02T20:38:02.722Z,17.77
2023-09-02T20:40:38.433Z,17.78
2023-09-02T20:43:10.357Z,17.72
2023-09-02T20:45:47.596Z,17.69
2023-09-02T20:48:18.468Z,17.64
2023-09-02T20:50:49.868Z,17.57
2023-09-02T20:53:20.466Z,17.52
2023-09-02T20:55:50.998Z,17.51
2023-09-02T20:58:22.012Z,17.50
2023-09-02T21:00:55.273Z,17.45
2023-09-02T21:03:26.087Z,17.42
2023-09-02T21:05:56.621Z,17.36
2023-09-02T21:08:27.208Z,17.30
2023-09-02T21:11:09.801Z,17.28
2023-09-02T21:13:41.409Z,17.24
2023-09-02T21:16:19.558Z,17.25
2023-09-02T21:18:50.629Z,17.11
2023-09-02T21:21:23.696Z,17.05
2023-09-02T21:23:56.338Z,17.05
2023-09-02T21:26:27.632Z,16.96
2023-09-02T21:28:58.400Z,17.00
2023-09-02T21:31:32.081Z,17.02
2023-09-02T21:34:02.792Z,16.97
2023-09-02T21:36:33.778Z,16.92
2023-09-02T21:39:04.659Z,16.88
2023-09-02T21:41:35.402Z,16.84
2023-09-02T21:44:06.179Z,16.87
2023-09-02T21:46:40.129Z,16.87
2023-09-02T21:49:10.929Z,16.81
2023-09-02T21:51:41.674Z,16.75
2023-09-02T21:54:12.970Z,16.78
2023-09-02T21:56:43.725Z,16.77
2023-09-02T21:59:15.306Z,16.70
2023-09-02T22:01:48.885Z,16.61
2023-09-02T22:04:19.894Z,16.59
2023-09-02T22:06:50.713Z,16.61
2023-09-02T22:09:22.250Z,16.57
2023-09-02T22:11:52.996Z,16.51
2023-09-02T22:14:23.718Z,16.48
2023-09-02T22:16:56.939Z,16.44
2023-09-02T22:19:27.438Z,16.43
2023-09-02T22:21:59.697Z,16.43
2023-09-02T22:24:30.396Z,16.45
2023-09-02T22:27:01.271Z,16.40
2023-09-02T22:29:31.853Z,16.31
2023-09-02T22:32:04.946Z,16.25
2023-09-02T22:34:35.477Z,16.25
2023-09-02T22:37:06.028Z,16.20
2023-09-02T22:39:36.528Z,16.23
2023-09-02T22:42:07.214Z,16.16
2023-09-02T22:44:37.710Z,16.19
2023-09-02T22:47:10.890Z,16.21
2023-09-02T22:49:41.448Z,16.15
2023-09-02T22:52:11.974Z,16.08
2023-09-02T22:54:42.589Z,16.03
2023-09-02T22:57:13.159Z,16.04
2023-09-02T22:59:44.284Z,15.98
2023-09-02T23:02:18.144Z,15.95
2023-09-02T23:04:51.747Z,15.91
2023-09-02T23:07:23.843Z,15.91
2023-09-02T23:09:54.371Z,15.92
2023-09-02T23:12:25.074Z,15.87
2023-09-02T23:14:55.877Z,15.81
2023-09-02T23:17:29.110Z,15.77
2023-09-02T23:20:01.672Z,15.76
2023-09-02T23:22:32.666Z,15.77
2023-09-02T23:25:03.947Z,15.73
2023-09-02T23:27:34.606Z,15.69
2023-09-02T23:30:06.442Z,15.63
2023-09-02T23:32:40.293Z,15.70
2023-09-02T23:35:11.601Z,15.73
2023-09-02T23:37:42.097Z,15.58
2023-09-02T23:40:16.521Z,15.60
2023-09-02T23:42:47.289Z,15.64
2023-09-02T23:45:17.953Z,15.64
2023-09-02T23:47:51.205Z,15.58
2023-09-02T23:50:21.853Z,15.60
2023-09-02T23:52:52.488Z,15.58
2023-09-02T23:55:23.102Z,15.58
2023-09-02T23:57:55.844Z,15.57
